Terminal Aerodrome Forecast
Issued by NWS

Home | Current Version | Previous Version | Text Only | Print | Product List | Glossary On
Versions: 1 2 3 4 5 6 7 8 9 10 11 12 13 14 15 16 17 18 19 20 21 22
000
FTUS43 KGRR 271135
TAFMKG
TAF
KMKG 271135Z 2712/2812 22012G22KT P6SM VCSH BKN035
      TEMPO 2713/2716 BKN015
     FM271600 25012G20KT P6SM VCSH BKN025
     FM272300 25011KT P6SM SCT150
     FM280300 19003KT 4SM BR BKN250=

USA.gov is the U.S. government's official web portal to all federal, state and local government web resources and services.